Time;durP1;ratioP1;P1;durP2;ratioP2;P2;SDS_P1;SDS_P2;PMS_P1;PMS_P2;Temp;Humidity;BMP_temperature;BMP_pressure;BME280_temperature;BME280_humidity;BME280_pressure;Samples;Min_cycle;Max_cycle;Signal;HPM_P1;HPM_P2
2022/04/16 00:01:36;;;;;;;29.08;16.23;;;;;;;;;;5036720;28;20025;-66
2022/04/16 00:04:02;;;;;;;29.42;16.80;;;;;;;;;;5036938;28;20037;-66
2022/04/16 00:06:27;;;;;;;28.92;16.42;;;;;;;;;;5029688;28;20036;-66
2022/04/16 00:08:53;;;;;;;26.30;16.52;;;;;;;;;;5014471;28;20547;-66
2022/04/16 00:11:18;;;;;;;27.77;17.17;;;;;;;;;;5011771;28;20052;-66
2022/04/16 00:13:46;;;;;;;33.10;18.05;;;;;;;;;;5028099;28;20029;-66
2022/04/16 00:16:11;;;;;;;42.22;17.98;;;;;;;;;;5049279;28;20060;-67
2022/04/16 00:18:37;;;;;;;33.08;18.30;;;;;;;;;;5038219;28;20091;-66
2022/04/16 00:21:05;;;;;;;32.53;18.92;;;;;;;;;;5026405;28;20060;-67
2022/04/16 00:23:30;;;;;;;30.63;19.02;;;;;;;;;;5022850;28;20049;-66
2022/04/16 00:25:56;;;;;;;30.90;18.17;;;;;;;;;;5031806;28;20405;-66
2022/04/16 00:28:22;;;;;;;34.42;18.88;;;;;;;;;;5030997;28;20049;-65
2022/04/16 00:30:48;;;;;;;31.55;17.67;;;;;;;;;;5036303;28;20036;-66
2022/04/16 00:33:13;;;;;;;36.00;18.02;;;;;;;;;;5030541;28;20060;-66
2022/04/16 00:35:42;;;;;;;33.72;19.40;;;;;;;;;;5017345;28;20025;-66
2022/04/16 00:38:08;;;;;;;34.95;19.13;;;;;;;;;;5028195;28;20106;-65
2022/04/16 00:40:34;;;;;;;33.75;18.98;;;;;;;;;;5032007;28;20475;-65
2022/04/16 00:43:00;;;;;;;35.47;19.77;;;;;;;;;;5018110;28;20038;-66
2022/04/16 00:45:26;;;;;;;39.45;20.42;;;;;;;;;;5051395;28;20055;-65
2022/04/16 00:47:51;;;;;;;38.58;21.02;;;;;;;;;;5030233;28;20103;-67
2022/04/16 00:50:16;;;;;;;37.17;21.25;;;;;;;;;;5012881;28;20047;-67
2022/04/16 00:52:44;;;;;;;41.70;22.75;;;;;;;;;;5051013;28;20032;-66
2022/04/16 00:55:10;;;;;;;44.03;21.83;;;;;;;;;;5033959;28;20052;-66
2022/04/16 00:57:40;;;;;;;43.28;23.45;;;;;;;;;;5015631;28;20060;-66
2022/04/16 01:00:08;;;;;;;38.42;22.45;;;;;;;;;;5042236;28;20079;-66
2022/04/16 01:02:37;;;;;;;36.83;22.50;;;;;;;;;;5026317;28;20455;-66
2022/04/16 01:05:04;;;;;;;42.83;22.05;;;;;;;;;;5011606;28;20042;-66
2022/04/16 01:07:30;;;;;;;35.90;21.80;;;;;;;;;;5026886;28;20128;-66
2022/04/16 01:09:56;;;;;;;39.95;22.13;;;;;;;;;;5029870;28;20083;-66
2022/04/16 01:12:21;;;;;;;36.83;22.02;;;;;;;;;;5022709;28;20045;-65
2022/04/16 01:14:49;;;;;;;36.45;21.65;;;;;;;;;;5011620;28;20048;-66
2022/04/16 01:17:15;;;;;;;40.55;21.40;;;;;;;;;;5022781;28;20029;-66
2022/04/16 01:19:41;;;;;;;37.53;21.60;;;;;;;;;;5029468;28;20051;-65
2022/04/16 01:22:10;;;;;;;38.55;21.83;;;;;;;;;;5019572;28;20045;-66
2022/04/16 01:24:37;;;;;;;39.97;22.63;;;;;;;;;;5030011;28;20544;-66
2022/04/16 01:27:03;;;;;;;43.42;21.80;;;;;;;;;;5024773;28;20040;-66
2022/04/16 01:29:28;;;;;;;38.63;21.77;;;;;;;;;;5029842;28;20041;-65
2022/04/16 01:31:53;;;;;;;42.00;21.70;;;;;;;;;;5017503;28;20106;-66
2022/04/16 01:34:19;;;;;;;38.85;21.33;;;;;;;;;;5030642;28;20030;-66
2022/04/16 01:36:45;;;;;;;42.53;20.95;;;;;;;;;;5031620;28;20486;-66
2022/04/16 01:39:11;;;;;;;37.25;20.75;;;;;;;;;;5032291;28;20137;-66
2022/04/16 01:41:36;;;;;;;39.17;20.73;;;;;;;;;;5028483;28;20367;-66
2022/04/16 01:44:02;;;;;;;39.92;21.77;;;;;;;;;;5030217;28;20029;-66
2022/04/16 01:46:29;;;;;;;40.17;22.02;;;;;;;;;;5027174;28;20108;-66
2022/04/16 01:48:54;;;;;;;40.15;22.13;;;;;;;;;;5024779;28;20172;-66
2022/04/16 01:51:21;;;;;;;39.47;22.00;;;;;;;;;;5019468;28;20510;-66
2022/04/16 01:53:46;;;;;;;36.60;21.90;;;;;;;;;;5036927;28;20028;-66
2022/04/16 01:56:12;;;;;;;40.95;22.15;;;;;;;;;;5025984;28;20402;-66
2022/04/16 01:58:38;;;;;;;42.97;22.90;;;;;;;;;;5032193;28;20460;-66
2022/04/16 02:01:05;;;;;;;39.55;21.83;;;;;;;;;;5030155;28;20034;-65
2022/04/16 02:03:31;;;;;;;41.92;21.98;;;;;;;;;;5020383;28;20482;-66
2022/04/16 02:05:56;;;;;;;40.85;22.50;;;;;;;;;;5022304;28;20069;-66
2022/04/16 02:08:22;;;;;;;41.97;22.55;;;;;;;;;;5031976;28;20262;-67
2022/04/16 02:10:47;;;;;;;38.67;21.45;;;;;;;;;;5022669;28;20052;-66
2022/04/16 02:13:12;;;;;;;40.63;22.23;;;;;;;;;;5035620;28;20120;-66
2022/04/16 02:15:38;;;;;;;39.80;21.05;;;;;;;;;;5027538;28;20449;-66
2022/04/16 02:18:04;;;;;;;40.67;21.60;;;;;;;;;;5039797;28;20059;-66
2022/04/16 02:20:30;;;;;;;43.70;23.05;;;;;;;;;;5038946;28;20515;-65
2022/04/16 02:22:55;;;;;;;41.65;21.42;;;;;;;;;;5051041;28;20156;-67
2022/04/16 02:25:24;;;;;;;46.80;23.25;;;;;;;;;;5032735;28;20073;-66
2022/04/16 02:27:50;;;;;;;49.90;24.98;;;;;;;;;;5034059;28;20672;-67
2022/04/16 02:30:16;;;;;;;50.28;23.90;;;;;;;;;;5031963;28;20117;-67
2022/04/16 02:32:47;;;;;;;46.30;22.40;;;;;;;;;;5034075;28;20037;-66
2022/04/16 02:35:14;;;;;;;45.75;22.25;;;;;;;;;;5033476;28;20517;-67
2022/04/16 02:37:41;;;;;;;45.80;21.77;;;;;;;;;;5044142;28;20039;-66
2022/04/16 02:40:07;;;;;;;42.30;22.83;;;;;;;;;;5039315;28;20071;-67
2022/04/16 02:42:37;;;;;;;45.83;23.08;;;;;;;;;;5038169;28;20033;-66
2022/04/16 02:47:48;;;;;;;43.67;23.00;;;;;;;;;;5030916;28;20693;-66
2022/04/16 02:50:14;;;;;;;45.28;22.90;;;;;;;;;;5028452;28;20120;-66
2022/04/16 02:52:39;;;;;;;47.80;23.77;;;;;;;;;;5041910;28;20035;-67
2022/04/16 02:55:05;;;;;;;43.65;23.25;;;;;;;;;;5037364;28;20029;-66
2022/04/16 02:57:31;;;;;;;47.03;24.02;;;;;;;;;;5027547;28;20471;-66
2022/04/16 02:59:57;;;;;;;48.55;23.77;;;;;;;;;;5032162;28;20037;-67
2022/04/16 03:02:23;;;;;;;50.20;24.67;;;;;;;;;;5026640;28;20029;-67
2022/04/16 03:04:51;;;;;;;54.75;25.45;;;;;;;;;;5016057;28;20037;-67
2022/04/16 03:07:17;;;;;;;55.60;26.92;;;;;;;;;;5036869;28;20029;-66
2022/04/16 03:09:43;;;;;;;60.08;29.55;;;;;;;;;;5030919;28;20137;-66
2022/04/16 03:12:08;;;;;;;63.47;30.63;;;;;;;;;;5031999;28;20514;-66
2022/04/16 03:17:33;;;;;;;71.43;34.90;;;;;;;;;;5030034;28;20039;-66
2022/04/16 03:19:59;;;;;;;77.22;36.10;;;;;;;;;;5038998;28;20033;-66
2022/04/16 03:22:24;;;;;;;75.38;35.25;;;;;;;;;;5053303;28;20051;-66
2022/04/16 03:24:51;;;;;;;84.85;36.35;;;;;;;;;;5030231;28;20025;-66
2022/04/16 03:27:16;;;;;;;74.03;35.03;;;;;;;;;;5032694;28;20077;-67
2022/04/16 03:29:42;;;;;;;71.05;34.70;;;;;;;;;;5028816;28;20045;-67
2022/04/16 03:32:08;;;;;;;74.68;35.45;;;;;;;;;;5032587;28;20045;-66
2022/04/16 03:34:34;;;;;;;78.55;36.10;;;;;;;;;;5027199;28;20035;-66
2022/04/16 03:36:59;;;;;;;71.05;34.47;;;;;;;;;;5033187;28;20116;-67
2022/04/16 03:39:25;;;;;;;74.20;33.40;;;;;;;;;;5030504;28;20108;-66
2022/04/16 03:41:51;;;;;;;64.95;31.60;;;;;;;;;;5034714;28;20040;-66
2022/04/16 03:44:17;;;;;;;66.00;32.15;;;;;;;;;;5032982;28;20133;-66
2022/04/16 03:46:42;;;;;;;66.82;31.60;;;;;;;;;;5032094;28;20083;-66
2022/04/16 03:49:08;;;;;;;60.50;28.80;;;;;;;;;;5029736;28;20041;-66
2022/04/16 03:51:33;;;;;;;58.58;29.00;;;;;;;;;;5033260;28;20034;-66
2022/04/16 03:59:59;;;;;;;60.40;28.80;;;;;;;;;;5047883;28;20020;-66
2022/04/16 04:02:12;;;;;;;49.17;24.88;;;;;;;;;;5033980;28;20064;-66
2022/04/16 04:04:37;;;;;;;47.40;25.38;;;;;;;;;;5028559;28;20744;-66
2022/04/16 04:07:03;;;;;;;48.50;25.48;;;;;;;;;;5032337;28;20067;-67
2022/04/16 04:09:28;;;;;;;42.58;24.13;;;;;;;;;;5044354;28;20022;-66
2022/04/16 04:11:54;;;;;;;44.15;24.10;;;;;;;;;;5011410;28;20128;-67
2022/04/16 04:14:19;;;;;;;49.90;25.17;;;;;;;;;;5022372;28;20048;-66
2022/04/16 04:16:44;;;;;;;45.67;23.70;;;;;;;;;;5032457;28;20116;-67
2022/04/16 04:19:10;;;;;;;44.92;24.13;;;;;;;;;;5018722;28;20091;-67
2022/04/16 04:21:35;;;;;;;41.88;24.27;;;;;;;;;;5028888;28;20057;-67
2022/04/16 04:24:01;;;;;;;44.42;23.13;;;;;;;;;;5032620;28;20456;-66
2022/04/16 04:26:26;;;;;;;47.08;24.15;;;;;;;;;;5030896;28;20102;-67
2022/04/16 04:28:51;;;;;;;43.67;23.55;;;;;;;;;;5018891;28;20057;-66
2022/04/16 04:31:17;;;;;;;45.65;24.05;;;;;;;;;;5036834;28;20375;-67
2022/04/16 04:33:42;;;;;;;46.10;23.73;;;;;;;;;;5032703;28;20564;-66
2022/04/16 04:36:08;;;;;;;46.05;23.20;;;;;;;;;;5029996;28;20451;-67
2022/04/16 04:38:33;;;;;;;48.47;24.73;;;;;;;;;;5030362;28;20151;-67
2022/04/16 04:41:00;;;;;;;44.28;22.75;;;;;;;;;;5034856;28;20029;-67
2022/04/16 04:43:26;;;;;;;45.20;23.95;;;;;;;;;;5051474;28;20033;-67
2022/04/16 04:45:51;;;;;;;48.95;24.55;;;;;;;;;;5034346;28;20040;-66
2022/04/16 04:48:17;;;;;;;50.72;24.30;;;;;;;;;;5040953;28;20515;-66
2022/04/16 04:50:42;;;;;;;47.63;23.77;;;;;;;;;;5034910;28;20029;-66
2022/04/16 04:53:07;;;;;;;47.50;24.70;;;;;;;;;;5030938;28;20037;-66
2022/04/16 04:55:33;;;;;;;50.33;23.75;;;;;;;;;;5028225;28;20168;-66
2022/04/16 04:57:58;;;;;;;50.35;24.00;;;;;;;;;;5029597;28;20580;-67
2022/04/16 05:00:24;;;;;;;46.50;22.92;;;;;;;;;;5030113;28;20454;-66
2022/04/16 05:02:49;;;;;;;49.15;24.23;;;;;;;;;;5030032;28;20121;-66
2022/04/16 05:05:16;;;;;;;46.63;23.35;;;;;;;;;;5030766;28;20037;-66
2022/04/16 05:07:42;;;;;;;52.08;24.40;;;;;;;;;;5016775;28;20037;-67
2022/04/16 05:10:08;;;;;;;47.65;25.02;;;;;;;;;;5027360;28;20029;-66
2022/04/16 05:12:33;;;;;;;53.53;23.75;;;;;;;;;;5042374;28;20041;-67
2022/04/16 05:14:59;;;;;;;50.45;24.00;;;;;;;;;;5033189;28;20022;-66
2022/04/16 05:17:24;;;;;;;51.35;24.73;;;;;;;;;;5025384;28;20418;-66
2022/04/16 05:19:49;;;;;;;48.08;23.63;;;;;;;;;;5026488;28;20463;-66
2022/04/16 05:22:15;;;;;;;50.25;24.30;;;;;;;;;;5030934;28;20045;-67
2022/04/16 05:24:40;;;;;;;53.15;24.23;;;;;;;;;;5020935;28;20044;-67
2022/04/16 05:27:06;;;;;;;51.30;24.27;;;;;;;;;;5042408;28;20037;-67
2022/04/16 05:29:48;;;;;;;54.95;24.33;;;;;;;;;;5046943;28;20058;-66
2022/04/16 05:32:16;;;;;;;45.35;23.00;;;;;;;;;;5020391;28;20064;-67
2022/04/16 05:34:42;;;;;;;50.70;23.80;;;;;;;;;;5027250;28;20034;-66
2022/04/16 05:37:07;;;;;;;50.58;23.55;;;;;;;;;;5025483;28;20036;-67
2022/04/16 05:39:32;;;;;;;54.42;24.30;;;;;;;;;;5051091;28;20052;-66
2022/04/16 05:41:58;;;;;;;53.67;24.20;;;;;;;;;;5052986;28;20033;-65
2022/04/16 05:44:23;;;;;;;52.85;24.05;;;;;;;;;;5052133;28;20478;-66
2022/04/16 05:46:49;;;;;;;53.22;24.52;;;;;;;;;;5038179;28;20057;-65
2022/04/16 05:49:14;;;;;;;51.50;24.50;;;;;;;;;;5054560;28;20367;-65
2022/04/16 05:51:39;;;;;;;48.25;23.45;;;;;;;;;;5049465;28;20060;-64
2022/04/16 05:54:05;;;;;;;48.00;23.90;;;;;;;;;;5052878;28;20033;-65
2022/04/16 05:56:31;;;;;;;46.40;23.98;;;;;;;;;;5053776;28;20223;-64
2022/04/16 05:58:59;;;;;;;48.10;23.50;;;;;;;;;;5045280;28;20036;-66
2022/04/16 06:01:24;;;;;;;49.15;22.90;;;;;;;;;;5041535;28;20025;-68
2022/04/16 06:03:50;;;;;;;45.45;22.77;;;;;;;;;;5051621;28;20059;-66
2022/04/16 06:06:15;;;;;;;41.63;22.15;;;;;;;;;;5052416;28;20032;-65
2022/04/16 06:08:40;;;;;;;49.97;22.65;;;;;;;;;;5027491;28;20026;-66
2022/04/16 06:11:06;;;;;;;41.17;21.33;;;;;;;;;;5055141;28;20125;-67
2022/04/16 06:13:31;;;;;;;43.47;21.80;;;;;;;;;;5053278;28;20021;-66
2022/04/16 06:15:58;;;;;;;42.97;20.58;;;;;;;;;;5045328;28;20095;-66
2022/04/16 06:18:23;;;;;;;43.53;20.90;;;;;;;;;;5052774;28;20025;-66
2022/04/16 06:20:48;;;;;;;41.25;20.58;;;;;;;;;;5042175;28;20485;-66
2022/04/16 06:23:14;;;;;;;41.40;20.63;;;;;;;;;;5051172;28;20041;-65
2022/04/16 06:25:39;;;;;;;37.20;19.25;;;;;;;;;;5049983;28;20088;-66
2022/04/16 06:28:05;;;;;;;36.38;19.58;;;;;;;;;;5052236;28;20495;-65
2022/04/16 06:30:30;;;;;;;33.35;18.58;;;;;;;;;;5049248;28;20051;-67
2022/04/16 06:32:56;;;;;;;35.35;19.45;;;;;;;;;;5050821;28;20124;-66
2022/04/16 06:35:22;;;;;;;33.47;18.52;;;;;;;;;;5053756;28;20028;-67
2022/04/16 06:37:47;;;;;;;36.25;18.55;;;;;;;;;;5042691;28;20025;-68
2022/04/16 06:40:13;;;;;;;30.25;17.65;;;;;;;;;;5047583;28;20127;-66
2022/04/16 06:42:39;;;;;;;30.58;17.13;;;;;;;;;;5050868;28;20029;-66
2022/04/16 06:45:06;;;;;;;31.35;17.00;;;;;;;;;;5040677;28;20114;-65
2022/04/16 06:47:32;;;;;;;29.55;16.98;;;;;;;;;;5049908;28;20033;-65
2022/04/16 06:49:57;;;;;;;28.92;16.88;;;;;;;;;;5039406;28;20038;-66
2022/04/16 06:52:23;;;;;;;31.15;17.30;;;;;;;;;;5028866;28;20568;-68
2022/04/16 06:54:49;;;;;;;27.05;15.95;;;;;;;;;;5032410;28;20048;-67
2022/04/16 06:57:14;;;;;;;28.05;16.42;;;;;;;;;;5033049;28;20390;-67
2022/04/16 06:59:40;;;;;;;28.20;16.15;;;;;;;;;;5034337;28;20030;-67
2022/04/16 07:02:08;;;;;;;28.70;15.95;;;;;;;;;;5047188;28;20037;-66
2022/04/16 07:04:33;;;;;;;25.50;14.93;;;;;;;;;;5048453;28;20286;-67
2022/04/16 07:06:59;;;;;;;25.98;15.38;;;;;;;;;;5047672;28;20470;-66
2022/04/16 07:09:25;;;;;;;28.17;15.73;;;;;;;;;;5033574;28;20120;-66
2022/04/16 07:11:50;;;;;;;31.27;15.57;;;;;;;;;;5045762;28;20025;-66
2022/04/16 07:14:16;;;;;;;26.45;15.63;;;;;;;;;;5040699;28;20029;-68
2022/04/16 07:16:42;;;;;;;25.10;14.73;;;;;;;;;;5031256;28;20454;-67
2022/04/16 07:19:07;;;;;;;27.55;14.90;;;;;;;;;;5044888;28;20032;-67
2022/04/16 07:21:33;;;;;;;23.55;14.38;;;;;;;;;;5053507;28;20045;-67
2022/04/16 07:23:58;;;;;;;25.88;13.95;;;;;;;;;;5043979;28;21592;-67
2022/04/16 07:26:24;;;;;;;20.48;12.18;;;;;;;;;;5036606;28;20026;-67
2022/04/16 07:28:49;;;;;;;22.63;12.77;;;;;;;;;;5033545;28;20037;-66
2022/04/16 07:31:14;;;;;;;21.70;13.02;;;;;;;;;;5033010;28;20029;-68
2022/04/16 07:33:40;;;;;;;22.25;12.55;;;;;;;;;;5030302;28;20113;-67
2022/04/16 07:36:05;;;;;;;22.15;12.77;;;;;;;;;;5034273;28;20111;-67
2022/04/16 07:38:31;;;;;;;22.58;12.73;;;;;;;;;;5032963;28;20029;-67
2022/04/16 07:40:56;;;;;;;22.20;12.57;;;;;;;;;;5031354;28;20029;-67
2022/04/16 07:43:22;;;;;;;19.50;12.10;;;;;;;;;;5032760;28;20447;-67
2022/04/16 07:45:47;;;;;;;21.80;12.70;;;;;;;;;;5050454;28;20390;-67
2022/04/16 07:48:13;;;;;;;21.02;12.35;;;;;;;;;;5053342;28;20052;-67
2022/04/16 07:50:38;;;;;;;18.75;12.27;;;;;;;;;;5032838;28;20347;-67
2022/04/16 07:53:04;;;;;;;22.83;13.70;;;;;;;;;;5040053;28;20131;-66
2022/04/16 07:55:32;;;;;;;20.83;12.65;;;;;;;;;;5052082;28;20390;-68
2022/04/16 07:57:59;;;;;;;20.60;12.82;;;;;;;;;;5050264;28;20550;-66
2022/04/16 08:00:24;;;;;;;19.45;11.77;;;;;;;;;;5050674;28;20084;-67
2022/04/16 08:02:50;;;;;;;19.13;12.07;;;;;;;;;;5049272;28;20440;-67
2022/04/16 08:05:15;;;;;;;19.52;11.93;;;;;;;;;;5039011;28;20025;-66
2022/04/16 08:07:41;;;;;;;18.42;11.77;;;;;;;;;;5038068;28;20097;-66
2022/04/16 08:10:07;;;;;;;20.38;12.55;;;;;;;;;;5052109;28;20028;-66
2022/04/16 08:12:32;;;;;;;18.88;11.60;;;;;;;;;;5049347;28;20032;-66
2022/04/16 08:14:58;;;;;;;19.75;12.15;;;;;;;;;;5051651;28;20055;-67
2022/04/16 08:17:23;;;;;;;20.40;12.25;;;;;;;;;;5046037;28;20037;-66
2022/04/16 08:19:49;;;;;;;19.58;12.13;;;;;;;;;;5029811;28;20104;-67
2022/04/16 08:22:23;;;;;;;18.67;11.63;;;;;;;;;;5031762;28;20399;-67
2022/04/16 08:27:35;;;;;;;20.13;10.85;;;;;;;;;;5032762;28;20044;-67
2022/04/16 08:30:01;;;;;;;18.45;10.43;;;;;;;;;;5033140;28;20104;-67
2022/04/16 08:32:26;;;;;;;17.05;10.30;;;;;;;;;;5030074;28;20136;-67
2022/04/16 08:34:52;;;;;;;17.88;10.02;;;;;;;;;;5044816;28;20068;-66
2022/04/16 08:37:18;;;;;;;16.70;10.23;;;;;;;;;;5042210;28;20033;-67
2022/04/16 08:39:43;;;;;;;18.05;10.73;;;;;;;;;;5031934;28;20140;-68
2022/04/16 08:42:09;;;;;;;17.60;10.57;;;;;;;;;;5013303;28;20589;-68
2022/04/16 08:44:38;;;;;;;16.38;10.43;;;;;;;;;;5029695;28;20034;-68
2022/04/16 08:47:05;;;;;;;16.75;10.68;;;;;;;;;;5029946;28;20072;-66
2022/04/16 08:49:31;;;;;;;17.25;10.73;;;;;;;;;;5032593;28;20460;-66
2022/04/16 08:51:57;;;;;;;19.13;11.50;;;;;;;;;;5031457;28;20029;-67
2022/04/16 08:54:23;;;;;;;17.00;10.95;;;;;;;;;;5031075;28;20056;-67
2022/04/16 08:56:48;;;;;;;17.33;11.07;;;;;;;;;;5035745;28;20059;-67
2022/04/16 08:59:14;;;;;;;16.85;10.15;;;;;;;;;;5031607;28;20040;-67
2022/04/16 09:01:40;;;;;;;15.98;10.00;;;;;;;;;;5030474;28;20458;-67
2022/04/16 09:04:05;;;;;;;15.10;9.27;;;;;;;;;;5029763;28;20076;-67
2022/04/16 09:06:31;;;;;;;14.82;8.90;;;;;;;;;;5028812;28;20463;-66
2022/04/16 09:08:56;;;;;;;15.18;9.05;;;;;;;;;;5030967;28;20030;-66
2022/04/16 09:11:26;;;;;;;15.05;9.52;;;;;;;;;;5031503;28;20039;-67
2022/04/16 09:13:55;;;;;;;14.32;9.75;;;;;;;;;;5031357;28;20069;-66
2022/04/16 09:16:21;;;;;;;14.43;9.05;;;;;;;;;;5039175;28;20033;-67
2022/04/16 09:18:52;;;;;;;15.48;9.02;;;;;;;;;;5049189;28;20226;-67
2022/04/16 09:21:28;;;;;;;14.23;8.80;;;;;;;;;;5047843;28;20052;-66
2022/04/16 09:24:00;;;;;;;13.27;9.10;;;;;;;;;;5044157;28;20129;-65
2022/04/16 09:26:26;;;;;;;13.65;9.32;;;;;;;;;;5033202;28;20025;-66
2022/04/16 09:28:52;;;;;;;12.23;8.98;;;;;;;;;;5038920;28;20044;-68
2022/04/16 09:31:18;;;;;;;12.63;8.48;;;;;;;;;;5035875;28;20142;-67
2022/04/16 09:33:45;;;;;;;13.02;8.52;;;;;;;;;;5033454;28;20104;-67
2022/04/16 09:36:10;;;;;;;11.82;8.18;;;;;;;;;;5030815;28;20108;-68
2022/04/16 09:38:37;;;;;;;15.50;9.52;;;;;;;;;;5030205;28;20109;-68
2022/04/16 09:41:08;;;;;;;13.55;9.25;;;;;;;;;;5025761;28;20034;-67
2022/04/16 09:43:35;;;;;;;12.77;9.15;;;;;;;;;;5051563;28;20028;-65
2022/04/16 09:46:11;;;;;;;11.95;8.70;;;;;;;;;;5043694;28;20033;-66
2022/04/16 09:48:37;;;;;;;13.18;9.02;;;;;;;;;;5031173;28;20045;-66
2022/04/16 09:51:04;;;;;;;12.27;8.65;;;;;;;;;;5039952;28;20108;-67
2022/04/16 09:53:30;;;;;;;13.27;9.23;;;;;;;;;;5036210;28;20120;-66
2022/04/16 09:56:00;;;;;;;14.40;9.15;;;;;;;;;;5030460;28;20476;-65
2022/04/16 09:58:34;;;;;;;12.82;8.43;;;;;;;;;;5048476;28;20025;-66
2022/04/16 10:01:01;;;;;;;19.02;9.18;;;;;;;;;;5042514;28;20068;-64
2022/04/16 10:03:27;;;;;;;13.68;8.35;;;;;;;;;;5037981;28;20104;-65
2022/04/16 10:05:57;;;;;;;15.30;8.57;;;;;;;;;;5035910;28;20431;-65
2022/04/16 10:08:25;;;;;;;14.25;8.27;;;;;;;;;;5045786;28;20044;-65
2022/04/16 10:10:55;;;;;;;12.52;8.52;;;;;;;;;;5042266;28;20510;-67
2022/04/16 10:13:22;;;;;;;13.93;8.77;;;;;;;;;;5041710;28;20056;-66
2022/04/16 10:16:12;;;;;;;12.18;7.85;;;;;;;;;;5043363;28;20032;-66
2022/04/16 10:18:38;;;;;;;12.88;8.25;;;;;;;;;;5045848;28;20045;-65
2022/04/16 10:21:04;;;;;;;13.35;8.13;;;;;;;;;;5028344;28;20060;-69
2022/04/16 10:23:31;;;;;;;10.65;7.53;;;;;;;;;;5026897;28;20044;-66
2022/04/16 10:26:16;;;;;;;13.25;8.10;;;;;;;;;;5045463;28;20029;-66
2022/04/16 10:28:51;;;;;;;15.32;7.97;;;;;;;;;;5048356;28;20028;-67
2022/04/16 10:31:24;;;;;;;11.30;7.80;;;;;;;;;;5051364;28;20136;-66
2022/04/16 10:34:00;;;;;;;12.18;7.53;;;;;;;;;;5041226;28;20036;-67
2022/04/16 10:36:37;;;;;;;11.40;6.88;;;;;;;;;;5047612;28;20052;-67
2022/04/16 10:39:24;;;;;;;10.82;7.20;;;;;;;;;;5018937;28;20048;-67
2022/04/16 10:42:01;;;;;;;10.77;7.25;;;;;;;;;;5047810;28;20033;-66
2022/04/16 10:44:30;;;;;;;11.20;7.22;;;;;;;;;;5051101;28;20037;-67
2022/04/16 10:46:58;;;;;;;13.05;7.88;;;;;;;;;;5023801;28;20100;-65
2022/04/16 10:49:25;;;;;;;10.57;6.88;;;;;;;;;;5033423;28;20041;-66
2022/04/16 10:51:52;;;;;;;11.23;6.80;;;;;;;;;;5048152;28;20033;-67
2022/04/16 10:54:32;;;;;;;10.32;6.40;;;;;;;;;;5041597;28;20060;-66
2022/04/16 10:56:59;;;;;;;9.20;6.40;;;;;;;;;;5046967;28;20032;-65
2022/04/16 10:59:44;;;;;;;9.90;6.55;;;;;;;;;;5034340;28;20304;-66
2022/04/16 11:02:36;;;;;;;9.85;6.40;;;;;;;;;;5031809;28;20025;-65
2022/04/16 11:05:07;;;;;;;8.52;6.00;;;;;;;;;;5036899;28;20029;-65
2022/04/16 11:07:35;;;;;;;9.52;6.32;;;;;;;;;;5046609;28;20383;-66
2022/04/16 11:10:05;;;;;;;7.95;5.90;;;;;;;;;;5043722;28;20036;-65
2022/04/16 11:12:30;;;;;;;9.10;6.20;;;;;;;;;;5049561;28;20036;-65
2022/04/16 11:14:56;;;;;;;7.75;5.50;;;;;;;;;;5041146;28;20155;-66
2022/04/16 11:17:21;;;;;;;12.43;7.00;;;;;;;;;;5038186;28;20398;-66
2022/04/16 11:20:07;;;;;;;8.63;5.47;;;;;;;;;;5046008;28;20102;-66
2022/04/16 11:22:33;;;;;;;7.82;5.55;;;;;;;;;;5046367;28;20434;-65
2022/04/16 11:25:00;;;;;;;8.48;5.88;;;;;;;;;;5051292;28;20049;-66
2022/04/16 11:35:57;;;;;;;7.10;4.30;;;;;;;;;;5048849;28;20103;-66
2022/04/16 11:38:32;;;;;;;7.65;4.70;;;;;;;;;;5050860;28;20039;-66
2022/04/16 11:41:04;;;;;;;5.68;4.18;;;;;;;;;;5046772;28;20020;-65
2022/04/16 11:43:30;;;;;;;7.03;3.65;;;;;;;;;;5037992;28;20099;-65
2022/04/16 11:46:22;;;;;;;7.25;3.95;;;;;;;;;;5042639;28;20034;-65
2022/04/16 11:48:49;;;;;;;5.93;3.67;;;;;;;;;;5034138;28;20099;-65
2022/04/16 11:51:15;;;;;;;6.93;3.85;;;;;;;;;;5038330;28;20049;-66
2022/04/16 11:53:45;;;;;;;7.10;3.00;;;;;;;;;;5051870;28;20029;-65
2022/04/16 11:56:11;;;;;;;3.95;2.97;;;;;;;;;;5041325;28;20540;-66
2022/04/16 11:58:36;;;;;;;3.63;2.70;;;;;;;;;;5050426;28;20114;-66
2022/04/16 12:01:03;;;;;;;4.88;2.83;;;;;;;;;;5050182;28;20056;-65
2022/04/16 12:03:39;;;;;;;3.50;2.40;;;;;;;;;;5042809;28;20082;-65
2022/04/16 12:06:09;;;;;;;4.20;2.40;;;;;;;;;;5015010;28;20121;-66
2022/04/16 12:08:35;;;;;;;4.53;2.50;;;;;;;;;;5030693;28;20093;-66
2022/04/16 12:11:00;;;;;;;3.65;2.38;;;;;;;;;;5048068;28;20131;-66
2022/04/16 12:13:36;;;;;;;4.75;2.30;;;;;;;;;;5043871;28;20033;-66
2022/04/16 12:16:07;;;;;;;3.55;2.28;;;;;;;;;;5036917;28;20032;-60
2022/04/16 12:18:37;;;;;;;3.42;2.08;;;;;;;;;;5045157;28;20025;-60
2022/04/16 12:21:21;;;;;;;2.80;2.05;;;;;;;;;;5041044;28;20064;-60
2022/04/16 12:23:47;;;;;;;7.78;2.10;;;;;;;;;;5040667;28;20108;-60
2022/04/16 12:26:17;;;;;;;4.18;2.30;;;;;;;;;;5049284;28;20031;-60
2022/04/16 12:28:51;;;;;;;2.90;2.00;;;;;;;;;;5048871;28;20068;-60
2022/04/16 12:31:26;;;;;;;3.22;2.20;;;;;;;;;;5046793;28;20028;-60
2022/04/16 12:33:51;;;;;;;3.03;2.10;;;;;;;;;;5047469;28;20051;-60
2022/04/16 12:36:17;;;;;;;2.60;1.85;;;;;;;;;;5043780;28;20028;-60
2022/04/16 12:38:42;;;;;;;2.75;1.88;;;;;;;;;;5045324;28;20036;-60
2022/04/16 12:41:09;;;;;;;4.25;2.10;;;;;;;;;;5045429;28;20427;-60
2022/04/16 12:43:35;;;;;;;2.55;1.80;;;;;;;;;;5045447;28;20038;-60
2022/04/16 12:46:00;;;;;;;4.60;1.98;;;;;;;;;;5050327;28;20075;-60
2022/04/16 12:48:27;;;;;;;2.50;1.70;;;;;;;;;;5044716;28;20083;-60
2022/04/16 12:50:52;;;;;;;3.03;1.80;;;;;;;;;;5040927;28;20486;-60
2022/04/16 12:53:18;;;;;;;3.50;1.73;;;;;;;;;;5037121;28;20127;-60
2022/04/16 12:55:43;;;;;;;2.10;1.60;;;;;;;;;;5049616;28;20033;-60
2022/04/16 12:58:09;;;;;;;5.00;1.70;;;;;;;;;;5048203;28;20035;-60
2022/04/16 13:00:34;;;;;;;2.67;2.00;;;;;;;;;;5046842;28;20371;-60
2022/04/16 13:03:00;;;;;;;2.75;1.80;;;;;;;;;;5047328;28;20057;-61
2022/04/16 13:05:29;;;;;;;1.92;1.70;;;;;;;;;;5034791;28;20080;-61
2022/04/16 13:07:54;;;;;;;8.30;1.98;;;;;;;;;;5025164;28;20071;-60
2022/04/16 13:10:20;;;;;;;2.45;1.90;;;;;;;;;;5047183;28;20057;-60
2022/04/16 13:12:45;;;;;;;2.42;1.70;;;;;;;;;;5038662;28;20037;-61
2022/04/16 13:15:11;;;;;;;2.58;1.55;;;;;;;;;;5036320;28;20056;-61
2022/04/16 13:17:39;;;;;;;2.55;1.67;;;;;;;;;;5042471;28;20485;-61
2022/04/16 13:20:06;;;;;;;2.20;1.80;;;;;;;;;;5045289;28;20483;-61
2022/04/16 13:22:32;;;;;;;6.22;1.88;;;;;;;;;;5045964;28;20037;-61
2022/04/16 13:24:57;;;;;;;4.20;1.70;;;;;;;;;;5049323;28;20029;-60
2022/04/16 13:27:23;;;;;;;1.98;1.70;;;;;;;;;;5042025;28;20582;-60
2022/04/16 13:29:49;;;;;;;3.08;1.90;;;;;;;;;;5036121;28;20041;-60
2022/04/16 13:32:14;;;;;;;3.10;1.73;;;;;;;;;;5040943;28;20490;-60
2022/04/16 13:34:43;;;;;;;3.22;1.60;;;;;;;;;;5047306;28;20482;-60
2022/04/16 13:37:09;;;;;;;2.78;1.50;;;;;;;;;;5019784;28;20049;-61
2022/04/16 13:42:18;;;;;;;2.90;1.50;;;;;;;;;;5035528;28;20051;-60
2022/04/16 13:44:43;;;;;;;2.42;1.63;;;;;;;;;;5043496;28;20033;-62
2022/04/16 13:47:09;;;;;;;3.10;1.73;;;;;;;;;;5041591;28;20108;-61
2022/04/16 13:49:34;;;;;;;4.10;1.80;;;;;;;;;;5049419;28;20068;-60
2022/04/16 13:52:00;;;;;;;3.05;1.90;;;;;;;;;;5049791;28;20114;-61
2022/04/16 13:54:26;;;;;;;2.50;1.80;;;;;;;;;;5039809;28;20056;-60
2022/04/16 13:56:52;;;;;;;4.65;1.83;;;;;;;;;;5023990;28;20044;-61
2022/04/16 13:59:18;;;;;;;2.72;1.80;;;;;;;;;;5039967;28;20398;-60
2022/04/16 14:01:43;;;;;;;2.90;1.58;;;;;;;;;;5041611;28;20467;-60
2022/04/16 14:04:12;;;;;;;2.75;1.70;;;;;;;;;;5044847;28;20040;-60
2022/04/16 14:06:37;;;;;;;4.20;1.80;;;;;;;;;;5026273;28;20040;-61
2022/04/16 14:09:03;;;;;;;2.63;1.83;;;;;;;;;;5051224;28;20028;-60
2022/04/16 14:11:28;;;;;;;2.83;1.90;;;;;;;;;;5050067;28;20090;-60
2022/04/16 14:13:54;;;;;;;3.53;2.10;;;;;;;;;;5022849;28;20068;-60
2022/04/16 14:16:20;;;;;;;4.47;2.00;;;;;;;;;;5047837;28;20111;-60
2022/04/16 14:18:47;;;;;;;2.72;1.80;;;;;;;;;;5035785;28;20507;-60
2022/04/16 14:21:13;;;;;;;2.50;1.48;;;;;;;;;;5050547;28;20060;-60
2022/04/16 14:23:40;;;;;;;2.35;1.80;;;;;;;;;;5045755;28;20029;-60
2022/04/16 14:26:07;;;;;;;3.28;1.70;;;;;;;;;;5052992;28;20036;-60
2022/04/16 14:28:33;;;;;;;2.38;1.63;;;;;;;;;;5050350;28;20043;-60
2022/04/16 14:30:59;;;;;;;2.10;1.70;;;;;;;;;;5052918;28;20033;-60
2022/04/16 14:33:25;;;;;;;2.65;1.50;;;;;;;;;;5039612;28;20293;-61
2022/04/16 14:35:50;;;;;;;2.08;1.50;;;;;;;;;;5041855;28;20501;-61
2022/04/16 14:38:18;;;;;;;1.63;1.40;;;;;;;;;;5050403;28;20033;-60
2022/04/16 14:40:44;;;;;;;1.88;1.48;;;;;;;;;;5042327;28;20087;-60
2022/04/16 14:43:11;;;;;;;2.80;1.50;;;;;;;;;;5048178;28;20021;-60
2022/04/16 14:45:41;;;;;;;5.75;1.60;;;;;;;;;;5046915;28;20040;-59
2022/04/16 14:48:08;;;;;;;1.63;1.30;;;;;;;;;;5036302;28;20083;-59
2022/04/16 14:50:34;;;;;;;2.13;1.50;;;;;;;;;;5046706;28;20037;-59